Gure Gaskuna — ECNV — position and weather

sailwx.info

Track history (hours):
 
Tides and Currents Weather Stations Pressure Air Temp Water Temp Dewpoint Dewpoint Depression Visibility Wind Speed Wind Dir Waves Ship Positions

Gure Gaskuna

Last reported at 2017-Oct-18 12:52 UTC. Time now 2017-Oct-19 02:15 UTC.
Position N 44°56' W 001°44'.

Length 39 m.

Type: Other ship. MMSI: 224404000.

Date/timePositionNaut miles runAvg speedWind from/ knotsBaromVisibWave heightAir tempDewpointWater temp
2017-Oct-18 12:52N 44°56' W 001°44'2 3.9
2017-Oct-18 12:29N 44°55' W 001°43'1 1.3
2017-Oct-18 11:59N 44°55' W 001°42'5 0.8
2017-Oct-18 05:47N 44°59' W 001°46'5 4.2
2017-Oct-18 04:35N 44°54' W 001°42'2 9.9
2017-Oct-18 04:23N 44°56' W 001°41'3 3.3
2017-Oct-18 03:33N 44°58' W 001°38'1 4.0
2017-Oct-18 03:14N 44°59' W 001°39'4 3.9
2017-Oct-18 02:11N 45°02' W 001°43'1 4.0
2017-Oct-18 01:59N 45°03' W 001°43'21 3.2
2017-Oct-17 19:35N 45°24' W 001°44'17 1.9
2017-Oct-17 10:39N 45°40' W 001°54'1 3.9
2017-Oct-17 10:19N 45°40' W 001°52'1 3.9
2017-Oct-17 09:57N 45°41' W 001°50'2 3.9
2017-Oct-17 09:28N 45°41' W 001°47'23 4.5
2017-Oct-17 04:29N 45°19' W 001°48'5 9.8
2017-Oct-17 04:00N 45°14' W 001°50'2610.0
2017-Oct-17 01:27N 44°49' W 001°57'1610.4
2017-Oct-16 23:52N 44°33' W 002°02'1710.3
2017-Oct-16 22:13N 44°17' W 002°07'310.4
2017-Oct-16 21:53N 44°13' W 002°08'410.4
2017-Oct-16 21:30N 44°09' W 002°09'510.6
2017-Oct-16 21:00N 44°04' W 002°11'510.5
2017-Oct-16 20:30N 43°59' W 002°12'510.4
2017-Oct-16 20:00N 43°54' W 002°14'510.2
2017-Oct-16 19:30N 43°49' W 002°15'510.3
2017-Oct-16 19:00N 43°44' W 002°16'510.4
2017-Oct-16 18:30N 43°39' W 002°18'510.3
2017-Oct-16 18:00N 43°34' W 002°20'510.2
2017-Oct-16 17:30N 43°29' W 002°22'510.1
2017-Oct-16 17:00N 43°24' W 002°24'4 0.2
2017-Oct-15 14:50N 43°20' W 002°25'7 8.0
2017-Oct-15 14:00N 43°26' W 002°21'510.2
2017-Oct-15 13:30N 43°31' W 002°19'510.5
2017-Oct-15 13:00N 43°35' W 002°16'510.3
2017-Oct-15 12:30N 43°40' W 002°13'510.1
2017-Oct-15 12:00N 43°45' W 002°11'5 9.9
2017-Oct-15 11:30N 43°49' W 002°08'5 9.8
2017-Oct-15 11:00N 43°54' W 002°05'5 9.7
2017-Oct-15 10:30N 43°58' W 002°03'5 9.8
2017-Oct-15 10:00N 44°03' W 002°00'5 9.7
2017-Oct-15 09:30N 44°07' W 001°58'1 2.5
2017-Oct-15 09:00N 44°09' W 001°57'2 4.0
2017-Oct-15 08:30N 44°11' W 001°57'2 4.0
2017-Oct-15 08:00N 44°13' W 001°57'2 3.9
2017-Oct-15 07:30N 44°15' W 001°57'2 3.9
2017-Oct-15 07:00N 44°17' W 001°57'2 4.0
2017-Oct-15 06:30N 44°19' W 001°57'2 3.9
2017-Oct-15 06:00N 44°21' W 001°57'2 4.4
2017-Oct-15 05:30N 44°23' W 001°57'4 8.2
2017-Oct-15 05:00N 44°27' W 001°57'5 9.4
2017-Oct-15 04:30N 44°31' W 001°58'10 9.7
2017-Oct-15 03:30N 44°40' W 002°03'5 9.9
2017-Oct-15 03:00N 44°45' W 002°06'5 9.8
2017-Oct-15 02:30N 44°50' W 002°09'5 9.7
2017-Oct-15 02:00N 44°54' W 002°12'4 8.1
2017-Oct-15 01:30N 44°58' W 002°13'5 9.5
2017-Oct-15 01:00N 45°01' W 002°17'2 2.9
2017-Oct-15 00:19N 45°02' W 002°14'2 3.8
2017-Oct-14 23:50N 45°02' W 002°11'1 3.9
2017-Oct-14 23:30N 45°02' W 002°09'2 4.0
2017-Oct-14 23:00N 45°02' W 002°07'2 4.0
2017-Oct-14 22:30N 45°02' W 002°04'2 4.0
2017-Oct-14 22:00N 45°02' W 002°01'3 4.3
2017-Oct-14 21:22N 45°02' W 001°57'13 4.2
2017-Oct-14 18:11N 45°15' W 001°54'1 3.9
2017-Oct-14 17:59N 45°16' W 001°54'3 3.8
2017-Oct-14 17:12N 45°18' W 001°56'1 3.9
2017-Oct-14 16:56N 45°19' W 001°57'2 4.5
2017-Oct-14 16:30N 45°21' W 001°58'2 3.8
2017-Oct-14 16:00N 45°23' W 001°58'2 3.8
2017-Oct-14 15:30N 45°24' W 001°59'2 4.0
2017-Oct-14 15:01N 45°26' W 002°01'2 3.8
2017-Oct-14 14:30N 45°28' W 002°03'2 3.8
2017-Oct-14 14:00N 45°29' W 002°04'2 3.8
2017-Oct-14 13:30N 45°31' W 002°05'2 3.9
2017-Oct-14 13:00N 45°33' W 002°06'3 5.1
2017-Oct-14 12:28N 45°35' W 002°05'3 4.4
2017-Oct-14 11:53N 45°37' W 002°02'3 4.1
2017-Oct-14 11:08N 45°38' W 001°58'0 4.1
2017-Oct-14 11:00N 45°38' W 001°58'2 4.0
2017-Oct-14 10:30N 45°39' W 001°55'2 3.9
2017-Oct-14 09:57N 45°40' W 001°52'2 4.0
2017-Oct-14 09:30N 45°41' W 001°50'2 4.4
2017-Oct-14 09:00N 45°41' W 001°47'3 3.3
2017-Oct-14 08:07N 45°43' W 001°43'0 3.9
2017-Oct-14 08:00N 45°44' W 001°43'3 4.0
2017-Oct-14 07:21N 45°46' W 001°42'3 4.2
2017-Oct-14 06:44N 45°49' W 001°41'0 0.8
2017-Oct-14 06:26N 45°49' W 001°41'0 0.6
2017-Oct-14 05:47N 45°49' W 001°41'2 4.0
2017-Oct-14 05:23N 45°51' W 001°41'2 4.3
2017-Oct-14 05:00N 45°52' W 001°41'11 9.2
2017-Oct-14 03:49N 46°02' W 001°49'3 9.7
2017-Oct-14 03:31N 46°04' W 001°52'5 9.8
2017-Oct-14 03:01N 46°08' W 001°56'5 9.9
2017-Oct-14 02:31N 46°12' W 001°59'5 9.9
2017-Oct-14 02:00N 46°17' W 002°04'2 3.3
2017-Oct-14 01:28N 46°18' W 002°05'2 3.8
2017-Oct-14 01:01N 46°19' W 002°07'2 3.8
2017-Oct-14 00:30N 46°20' W 002°10'2 3.9
2017-Oct-14 00:00N 46°21' W 002°12'2 3.9
2017-Oct-13 23:31N 46°22' W 002°14'2 3.9
2017-Oct-13 23:01N 46°23' W 002°16'2 3.9
2017-Oct-13 22:31N 46°25' W 002°19'2 4.5
2017-Oct-13 22:00N 46°26' W 002°21'2 3.7
2017-Oct-13 21:30N 46°26' W 002°24'2 3.5
2017-Oct-13 21:01N 46°25' W 002°22'2 3.9
2017-Oct-13 20:26N 46°24' W 002°19'2 3.9
2017-Oct-13 20:01N 46°23' W 002°17'2 4.0
2017-Oct-13 19:29N 46°21' W 002°15'2 4.0
2017-Oct-13 18:57N 46°20' W 002°13'2 4.2
2017-Oct-13 18:31N 46°19' W 002°11'0 0.4
2017-Oct-13 18:00N 46°19' W 002°11'2 4.0
2017-Oct-13 17:30N 46°20' W 002°13'2 4.0
2017-Oct-13 17:00N 46°22' W 002°15'2 4.0
2017-Oct-13 16:30N 46°23' W 002°17'2 4.0
2017-Oct-13 16:01N 46°24' W 002°20'2 4.0
2017-Oct-13 15:31N 46°26' W 002°22'2 3.9
2017-Oct-13 15:00N 46°27' W 002°24'2 4.0
2017-Oct-13 14:30N 46°28' W 002°26'2 4.4
2017-Oct-13 14:00N 46°30' W 002°29'2 3.2
2017-Oct-13 13:30N 46°31' W 002°30'2 3.4
2017-Oct-13 13:00N 46°30' W 002°27'2 4.0
2017-Oct-13 12:30N 46°29' W 002°25'2 4.0
2017-Oct-13 12:00N 46°28' W 002°22'2 4.0
2017-Oct-13 11:30N 46°27' W 002°20'4 3.9
2017-Oct-13 10:31N 46°24' W 002°16'0 3.7
2017-Oct-13 10:31N 46°24' W 002°16'2 2.4
2017-Oct-13 09:34N 46°24' W 002°13'0 4.0
2017-Oct-13 09:30N 46°24' W 002°13'2 4.0
2017-Oct-13 08:59N 46°24' W 002°10'2 3.9
2017-Oct-13 08:30N 46°23' W 002°07'2 3.9
2017-Oct-13 08:00N 46°22' W 002°05'2 3.9
2017-Oct-13 07:30N 46°20' W 002°03'2 3.9
2017-Oct-13 07:01N 46°19' W 002°01'2 4.0
2017-Oct-13 06:30N 46°17' W 001°59'3 4.3
2017-Oct-13 05:50N 46°14' W 001°59'2 3.9
2017-Oct-13 05:26N 46°13' W 001°59'5 3.9
2017-Oct-13 04:15N 46°08' W 001°60'2 4.0
2017-Oct-13 03:45N 46°06' W 002°01'1 4.0
2017-Oct-13 03:31N 46°05' W 002°01'3 5.7
2017-Oct-13 03:00N 46°03' W 002°03'  
2017-Oct-09 21:49N 44°16' W 002°39'310.4
2017-Oct-09 21:31N 44°13' W 002°38'510.5
2017-Oct-09 21:01N 44°08' W 002°37'510.7
2017-Oct-09 20:31N 44°02' W 002°35'510.6
2017-Oct-09 20:01N 43°57' W 002°34'510.8
2017-Oct-09 19:31N 43°52' W 002°33'510.6
2017-Oct-09 19:01N 43°47' W 002°31'510.7
2017-Oct-09 18:31N 43°41' W 002°30'510.5
2017-Oct-09 18:01N 43°36' W 002°29'510.4
2017-Oct-09 17:31N 43°31' W 002°27'510.7
2017-Oct-09 17:01N 43°26' W 002°26'510.5
2017-Oct-09 16:31N 43°21' W 002°25'  
Track history (hours):
 
Tides and Currents Weather Stations Pressure Air Temp Water Temp Dewpoint Dewpoint Depression Visibility Wind Speed Wind Dir Waves Ship Positions

Gure Gaskuna

Last reported at 2017-Oct-18 12:52 UTC. Time now 2017-Oct-19 02:15 UTC.
Position N 44°56' W 001°44'.

Length 39 m.

Type: Other ship. MMSI: 224404000.

Date/timePositionNaut miles runAvg speedWind from/ knotsBaromVisibWave heightAir tempDewpointWater temp
2017-Oct-18 12:52N 44°56' W 001°44'2 3.9
2017-Oct-18 12:29N 44°55' W 001°43'1 1.3
2017-Oct-18 11:59N 44°55' W 001°42'5 0.8
2017-Oct-18 05:47N 44°59' W 001°46'5 4.2
2017-Oct-18 04:35N 44°54' W 001°42'2 9.9
2017-Oct-18 04:23N 44°56' W 001°41'3 3.3
2017-Oct-18 03:33N 44°58' W 001°38'1 4.0
2017-Oct-18 03:14N 44°59' W 001°39'4 3.9
2017-Oct-18 02:11N 45°02' W 001°43'1 4.0
2017-Oct-18 01:59N 45°03' W 001°43'21 3.2
2017-Oct-17 19:35N 45°24' W 001°44'17 1.9
2017-Oct-17 10:39N 45°40' W 001°54'1 3.9
2017-Oct-17 10:19N 45°40' W 001°52'1 3.9
2017-Oct-17 09:57N 45°41' W 001°50'2 3.9
2017-Oct-17 09:28N 45°41' W 001°47'23 4.5
2017-Oct-17 04:29N 45°19' W 001°48'5 9.8
2017-Oct-17 04:00N 45°14' W 001°50'2610.0
2017-Oct-17 01:27N 44°49' W 001°57'1610.4
2017-Oct-16 23:52N 44°33' W 002°02'1710.3
2017-Oct-16 22:13N 44°17' W 002°07'310.4
2017-Oct-16 21:53N 44°13' W 002°08'410.4
2017-Oct-16 21:30N 44°09' W 002°09'510.6
2017-Oct-16 21:00N 44°04' W 002°11'510.5
2017-Oct-16 20:30N 43°59' W 002°12'510.4
2017-Oct-16 20:00N 43°54' W 002°14'510.2
2017-Oct-16 19:30N 43°49' W 002°15'510.3
2017-Oct-16 19:00N 43°44' W 002°16'510.4
2017-Oct-16 18:30N 43°39' W 002°18'510.3
2017-Oct-16 18:00N 43°34' W 002°20'510.2
2017-Oct-16 17:30N 43°29' W 002°22'510.1
2017-Oct-16 17:00N 43°24' W 002°24'4 0.2
2017-Oct-15 14:50N 43°20' W 002°25'7 8.0
2017-Oct-15 14:00N 43°26' W 002°21'510.2
2017-Oct-15 13:30N 43°31' W 002°19'510.5
2017-Oct-15 13:00N 43°35' W 002°16'510.3
2017-Oct-15 12:30N 43°40' W 002°13'510.1
2017-Oct-15 12:00N 43°45' W 002°11'5 9.9
2017-Oct-15 11:30N 43°49' W 002°08'5 9.8
2017-Oct-15 11:00N 43°54' W 002°05'5 9.7
2017-Oct-15 10:30N 43°58' W 002°03'5 9.8
2017-Oct-15 10:00N 44°03' W 002°00'5 9.7
2017-Oct-15 09:30N 44°07' W 001°58'1 2.5
2017-Oct-15 09:00N 44°09' W 001°57'2 4.0
2017-Oct-15 08:30N 44°11' W 001°57'2 4.0
2017-Oct-15 08:00N 44°13' W 001°57'2 3.9
2017-Oct-15 07:30N 44°15' W 001°57'2 3.9
2017-Oct-15 07:00N 44°17' W 001°57'2 4.0
2017-Oct-15 06:30N 44°19' W 001°57'2 3.9
2017-Oct-15 06:00N 44°21' W 001°57'2 4.4
2017-Oct-15 05:30N 44°23' W 001°57'4 8.2
2017-Oct-15 05:00N 44°27' W 001°57'5 9.4
2017-Oct-15 04:30N 44°31' W 001°58'10 9.7
2017-Oct-15 03:30N 44°40' W 002°03'5 9.9
2017-Oct-15 03:00N 44°45' W 002°06'5 9.8
2017-Oct-15 02:30N 44°50' W 002°09'5 9.7
2017-Oct-15 02:00N 44°54' W 002°12'4 8.1
2017-Oct-15 01:30N 44°58' W 002°13'5 9.5
2017-Oct-15 01:00N 45°01' W 002°17'2 2.9
2017-Oct-15 00:19N 45°02' W 002°14'2 3.8
2017-Oct-14 23:50N 45°02' W 002°11'1 3.9
2017-Oct-14 23:30N 45°02' W 002°09'2 4.0
2017-Oct-14 23:00N 45°02' W 002°07'2 4.0
2017-Oct-14 22:30N 45°02' W 002°04'2 4.0
2017-Oct-14 22:00N 45°02' W 002°01'3 4.3
2017-Oct-14 21:22N 45°02' W 001°57'13 4.2
2017-Oct-14 18:11N 45°15' W 001°54'1 3.9
2017-Oct-14 17:59N 45°16' W 001°54'3 3.8
2017-Oct-14 17:12N 45°18' W 001°56'1 3.9
2017-Oct-14 16:56N 45°19' W 001°57'2 4.5
2017-Oct-14 16:30N 45°21' W 001°58'2 3.8
2017-Oct-14 16:00N 45°23' W 001°58'2 3.8
2017-Oct-14 15:30N 45°24' W 001°59'2 4.0
2017-Oct-14 15:01N 45°26' W 002°01'2 3.8
2017-Oct-14 14:30N 45°28' W 002°03'2 3.8
2017-Oct-14 14:00N 45°29' W 002°04'2 3.8
2017-Oct-14 13:30N 45°31' W 002°05'2 3.9
2017-Oct-14 13:00N 45°33' W 002°06'3 5.1
2017-Oct-14 12:28N 45°35' W 002°05'3 4.4
2017-Oct-14 11:53N 45°37' W 002°02'3 4.1
2017-Oct-14 11:08N 45°38' W 001°58'0 4.1
2017-Oct-14 11:00N 45°38' W 001°58'2 4.0
2017-Oct-14 10:30N 45°39' W 001°55'2 3.9
2017-Oct-14 09:57N 45°40' W 001°52'2 4.0
2017-Oct-14 09:30N 45°41' W 001°50'2 4.4
2017-Oct-14 09:00N 45°41' W 001°47'3 3.3
2017-Oct-14 08:07N 45°43' W 001°43'0 3.9
2017-Oct-14 08:00N 45°44' W 001°43'3 4.0
2017-Oct-14 07:21N 45°46' W 001°42'3 4.2
2017-Oct-14 06:44N 45°49' W 001°41'0 0.8
2017-Oct-14 06:26N 45°49' W 001°41'0 0.6
2017-Oct-14 05:47N 45°49' W 001°41'2 4.0
2017-Oct-14 05:23N 45°51' W 001°41'2 4.3
2017-Oct-14 05:00N 45°52' W 001°41'11 9.2
2017-Oct-14 03:49N 46°02' W 001°49'3 9.7
2017-Oct-14 03:31N 46°04' W 001°52'5 9.8
2017-Oct-14 03:01N 46°08' W 001°56'5 9.9
2017-Oct-14 02:31N 46°12' W 001°59'5 9.9
2017-Oct-14 02:00N 46°17' W 002°04'2 3.3
2017-Oct-14 01:28N 46°18' W 002°05'2 3.8
2017-Oct-14 01:01N 46°19' W 002°07'2 3.8
2017-Oct-14 00:30N 46°20' W 002°10'2 3.9
2017-Oct-14 00:00N 46°21' W 002°12'2 3.9
2017-Oct-13 23:31N 46°22' W 002°14'2 3.9
2017-Oct-13 23:01N 46°23' W 002°16'2 3.9
2017-Oct-13 22:31N 46°25' W 002°19'2 4.5
2017-Oct-13 22:00N 46°26' W 002°21'2 3.7
2017-Oct-13 21:30N 46°26' W 002°24'2 3.5
2017-Oct-13 21:01N 46°25' W 002°22'2 3.9
2017-Oct-13 20:26N 46°24' W 002°19'2 3.9
2017-Oct-13 20:01N 46°23' W 002°17'2 4.0
2017-Oct-13 19:29N 46°21' W 002°15'2 4.0
2017-Oct-13 18:57N 46°20' W 002°13'2 4.2
2017-Oct-13 18:31N 46°19' W 002°11'0 0.4
2017-Oct-13 18:00N 46°19' W 002°11'2 4.0
2017-Oct-13 17:30N 46°20' W 002°13'2 4.0
2017-Oct-13 17:00N 46°22' W 002°15'2 4.0
2017-Oct-13 16:30N 46°23' W 002°17'2 4.0
2017-Oct-13 16:01N 46°24' W 002°20'2 4.0
2017-Oct-13 15:31N 46°26' W 002°22'2 3.9
2017-Oct-13 15:00N 46°27' W 002°24'2 4.0
2017-Oct-13 14:30N 46°28' W 002°26'2 4.4
2017-Oct-13 14:00N 46°30' W 002°29'2 3.2
2017-Oct-13 13:30N 46°31' W 002°30'2 3.4
2017-Oct-13 13:00N 46°30' W 002°27'2 4.0
2017-Oct-13 12:30N 46°29' W 002°25'2 4.0
2017-Oct-13 12:00N 46°28' W 002°22'2 4.0
2017-Oct-13 11:30N 46°27' W 002°20'4 3.9
2017-Oct-13 10:31N 46°24' W 002°16'0 3.7
2017-Oct-13 10:31N 46°24' W 002°16'2 2.4
2017-Oct-13 09:34N 46°24' W 002°13'0 4.0
2017-Oct-13 09:30N 46°24' W 002°13'2 4.0
2017-Oct-13 08:59N 46°24' W 002°10'2 3.9
2017-Oct-13 08:30N 46°23' W 002°07'2 3.9
2017-Oct-13 08:00N 46°22' W 002°05'2 3.9
2017-Oct-13 07:30N 46°20' W 002°03'2 3.9
2017-Oct-13 07:01N 46°19' W 002°01'2 4.0
2017-Oct-13 06:30N 46°17' W 001°59'3 4.3
2017-Oct-13 05:50N 46°14' W 001°59'2 3.9
2017-Oct-13 05:26N 46°13' W 001°59'5 3.9
2017-Oct-13 04:15N 46°08' W 001°60'2 4.0
2017-Oct-13 03:45N 46°06' W 002°01'1 4.0
2017-Oct-13 03:31N 46°05' W 002°01'3 5.7
2017-Oct-13 03:00N 46°03' W 002°03'  
2017-Oct-09 21:49N 44°16' W 002°39'310.4
2017-Oct-09 21:31N 44°13' W 002°38'510.5
2017-Oct-09 21:01N 44°08' W 002°37'510.7
2017-Oct-09 20:31N 44°02' W 002°35'510.6
2017-Oct-09 20:01N 43°57' W 002°34'510.8
2017-Oct-09 19:31N 43°52' W 002°33'510.6
2017-Oct-09 19:01N 43°47' W 002°31'510.7
2017-Oct-09 18:31N 43°41' W 002°30'510.5
2017-Oct-09 18:01N 43°36' W 002°29'510.4
2017-Oct-09 17:31N 43°31' W 002°27'510.7
2017-Oct-09 17:01N 43°26' W 002°26'510.5
2017-Oct-09 16:31N 43°21' W 002°25'  

Dump ship's entire track history